Time;durP1;ratioP1;P1;durP2;ratioP2;P2;SDS_P1;SDS_P2;PMS_P1;PMS_P2;Temp;Humidity;BMP_temperature;BMP_pressure;BME280_temperature;BME280_humidity;BME280_pressure;Samples;Min_cycle;Max_cycle;Signal;HPM_P1;HPM_P2
2023/05/04 00:04:55;;;;;;;6.97;1.30;;;;;;;;;;21002792;28;20532;-64
2023/05/04 00:14:57;;;;;;;5.07;1.05;;;;;;;;;;21000314;28;20051;-64
2023/05/04 00:24:59;;;;;;;5.10;0.88;;;;;;;;;;21000384;28;20547;-64
2023/05/04 00:35:01;;;;;;;2.58;0.70;;;;;;;;;;20999994;28;20054;-64
2023/05/04 00:45:02;;;;;;;4.25;0.60;;;;;;;;;;20997815;28;20168;-65
2023/05/04 00:55:05;;;;;;;1.33;0.50;;;;;;;;;;20999574;28;20449;-65
2023/05/04 01:05:08;;;;;;;2.88;0.50;;;;;;;;;;20996643;28;20051;-65
2023/05/04 01:15:10;;;;;;;1.75;0.88;;;;;;;;;;20995691;28;20052;-64
2023/05/04 01:25:12;;;;;;;1.52;0.70;;;;;;;;;;20995120;28;20527;-64
2023/05/04 01:35:15;;;;;;;1.52;0.50;;;;;;;;;;20994932;28;20056;-65
2023/05/04 01:45:17;;;;;;;2.83;0.50;;;;;;;;;;20995761;28;20076;-64
2023/05/04 01:55:18;;;;;;;1.63;0.50;;;;;;;;;;20995680;28;20049;-64
2023/05/04 02:05:20;;;;;;;0.93;0.47;;;;;;;;;;20993800;28;20063;-63
2023/05/04 02:15:22;;;;;;;3.97;0.60;;;;;;;;;;20994674;28;20527;-63
2023/05/04 02:25:24;;;;;;;1.50;0.60;;;;;;;;;;20993662;28;20460;-64
2023/05/04 02:35:26;;;;;;;1.35;0.45;;;;;;;;;;20993018;28;20060;-65
2023/05/04 02:45:28;;;;;;;1.48;0.45;;;;;;;;;;21008276;28;20071;-63
2023/05/04 02:55:30;;;;;;;2.00;0.70;;;;;;;;;;21007187;28;20106;-64
2023/05/04 03:05:32;;;;;;;2.15;0.50;;;;;;;;;;21006920;28;20083;-63
2023/05/04 03:15:34;;;;;;;2.88;0.43;;;;;;;;;;21006073;28;20394;-65
2023/05/04 03:25:36;;;;;;;1.40;0.60;;;;;;;;;;21004553;28;20095;-64
2023/05/04 03:35:37;;;;;;;1.98;0.57;;;;;;;;;;21004701;28;20062;-64
2023/05/04 03:45:39;;;;;;;7.35;0.60;;;;;;;;;;21003682;28;20375;-63
2023/05/04 03:55:41;;;;;;;1.90;0.68;;;;;;;;;;21001114;28;20201;-63
2023/05/04 04:05:43;;;;;;;2.60;0.60;;;;;;;;;;21002448;28;20045;-63
2023/05/04 04:15:45;;;;;;;1.88;0.80;;;;;;;;;;21001816;28;20051;-64
2023/05/04 04:25:47;;;;;;;2.25;0.63;;;;;;;;;;20999234;28;20061;-64
2023/05/04 04:35:49;;;;;;;3.03;0.60;;;;;;;;;;20999388;28;20098;-64
2023/05/04 04:45:52;;;;;;;2.30;0.43;;;;;;;;;;21000504;28;20505;-63
2023/05/04 04:55:54;;;;;;;0.68;0.40;;;;;;;;;;20998558;28;20056;-64
2023/05/04 05:05:56;;;;;;;1.48;0.45;;;;;;;;;;20998076;28;20044;-65
2023/05/04 05:15:58;;;;;;;1.85;0.80;;;;;;;;;;20997127;28;20044;-64
2023/05/04 05:26:00;;;;;;;4.55;0.90;;;;;;;;;;20996310;28;20055;-65
2023/05/04 05:36:02;;;;;;;2.53;0.40;;;;;;;;;;20997301;28;20052;-64
2023/05/04 05:46:05;;;;;;;2.45;0.93;;;;;;;;;;20996762;28;20421;-64
2023/05/04 05:56:07;;;;;;;4.55;1.63;;;;;;;;;;20995606;28;20052;-64
2023/05/04 06:06:10;;;;;;;2.13;0.70;;;;;;;;;;20994795;28;20075;-64
2023/05/04 06:16:12;;;;;;;6.97;0.43;;;;;;;;;;21003066;28;20140;-64
2023/05/04 06:26:14;;;;;;;3.00;0.70;;;;;;;;;;21010268;28;20506;-65
2023/05/04 06:36:15;;;;;;;3.10;0.70;;;;;;;;;;21009128;28;20090;-65
2023/05/04 06:46:17;;;;;;;3.22;1.00;;;;;;;;;;21008574;28;20045;-64
2023/05/04 06:56:20;;;;;;;3.13;0.70;;;;;;;;;;21009173;28;20048;-65
2023/05/04 07:06:25;;;;;;;5.95;0.73;;;;;;;;;;21007965;28;20405;-64
2023/05/04 07:16:27;;;;;;;2.83;0.43;;;;;;;;;;21007718;28;20135;-64
2023/05/04 07:26:28;;;;;;;4.60;0.80;;;;;;;;;;21004446;28;20062;-64
2023/05/04 07:36:30;;;;;;;3.03;0.47;;;;;;;;;;21005951;28;20056;-64
2023/05/04 07:46:31;;;;;;;1.90;1.00;;;;;;;;;;21004887;28;20481;-64
2023/05/04 07:56:32;;;;;;;1.48;0.47;;;;;;;;;;21005188;28;20048;-65
2023/05/04 08:06:38;;;;;;;3.40;0.73;;;;;;;;;;21003631;28;20041;-64
2023/05/04 08:16:39;;;;;;;1.48;0.50;;;;;;;;;;21003076;28;20105;-65
2023/05/04 08:26:40;;;;;;;1.35;0.40;;;;;;;;;;21002768;28;20424;-64
2023/05/04 08:36:41;;;;;;;3.75;0.60;;;;;;;;;;21001351;28;20048;-65
2023/05/04 08:46:43;;;;;;;3.05;0.65;;;;;;;;;;21000509;28;20084;-65
2023/05/04 08:56:45;;;;;;;2.58;0.50;;;;;;;;;;20998298;28;20132;-64
2023/05/04 09:06:47;;;;;;;1.48;0.47;;;;;;;;;;20999380;28;20049;-65
2023/05/04 09:16:48;;;;;;;0.88;0.30;;;;;;;;;;20996853;28;20040;-69
2023/05/04 09:26:49;;;;;;;11.02;0.63;;;;;;;;;;20993681;28;20087;-62
2023/05/04 09:37:00;;;;;;;3.80;0.50;;;;;;;;;;20993017;28;20059;-69
2023/05/04 09:47:01;;;;;;;1.67;0.50;;;;;;;;;;20985127;28;20500;-65
2023/05/04 09:57:11;;;;;;;2.35;0.30;;;;;;;;;;20992470;28;20524;-65
2023/05/04 10:07:13;;;;;;;4.38;0.50;;;;;;;;;;20988510;28;20406;-61
2023/05/04 10:17:22;;;;;;;3.20;0.50;;;;;;;;;;20982854;28;20064;-61
2023/05/04 10:27:45;;;;;;;2.13;0.88;;;;;;;;;;20974499;28;20052;-60
2023/05/04 10:37:55;;;;;;;5.22;0.40;;;;;;;;;;20987749;28;20501;-61
2023/05/04 10:47:57;;;;;;;1.83;0.60;;;;;;;;;;20984576;28;20543;-60
2023/05/04 10:57:58;;;;;;;2.83;0.88;;;;;;;;;;20982703;28;21983;-62
2023/05/04 11:07:59;;;;;;;3.15;0.30;;;;;;;;;;20977020;28;20374;-67
2023/05/04 11:18:01;;;;;;;2.67;0.60;;;;;;;;;;20980332;28;20490;-63
2023/05/04 11:28:02;;;;;;;2.10;0.55;;;;;;;;;;20922185;28;20533;-64
2023/05/04 11:38:04;;;;;;;1.77;0.40;;;;;;;;;;20991037;28;20413;-63
2023/05/04 11:48:07;;;;;;;1.52;0.40;;;;;;;;;;20992538;28;20067;-66
2023/05/04 11:58:09;;;;;;;2.47;0.80;;;;;;;;;;21001425;28;20040;-67
2023/05/04 12:08:20;;;;;;;3.30;0.55;;;;;;;;;;20997009;28;20139;-67
2023/05/04 12:18:28;;;;;;;3.40;0.40;;;;;;;;;;20993224;28;20464;-68
2023/05/04 12:28:29;;;;;;;1.88;0.25;;;;;;;;;;21000505;28;20127;-66
2023/05/04 12:38:31;;;;;;;2.40;1.00;;;;;;;;;;20998574;28;20056;-67
2023/05/04 12:48:32;;;;;;;2.15;0.50;;;;;;;;;;20999222;28;20508;-67
2023/05/04 12:58:33;;;;;;;3.28;1.20;;;;;;;;;;20996884;28;20051;-67
2023/05/04 13:08:34;;;;;;;1.70;0.63;;;;;;;;;;20996906;28;20044;-66
2023/05/04 13:18:35;;;;;;;0.70;0.28;;;;;;;;;;20997228;28;20127;-67
2023/05/04 13:28:37;;;;;;;2.42;0.50;;;;;;;;;;20997960;28;20060;-68
2023/05/04 13:38:38;;;;;;;0.45;0.20;;;;;;;;;;20997283;28;20109;-66
2023/05/04 13:48:39;;;;;;;1.10;0.20;;;;;;;;;;20996921;28;20086;-67
2023/05/04 13:58:40;;;;;;;12.43;8.32;;;;;;;;;;20996652;28;20516;-67
2023/05/04 14:08:41;;;;;;;1.67;0.20;;;;;;;;;;20995649;28;20432;-68
2023/05/04 14:18:43;;;;;;;2.13;0.38;;;;;;;;;;20995454;28;20052;-67
2023/05/04 14:28:44;;;;;;;4.90;0.98;;;;;;;;;;20993767;28;20404;-67
2023/05/04 14:38:45;;;;;;;1.05;0.10;;;;;;;;;;21004687;28;20048;-67
2023/05/04 14:48:46;;;;;;;4.65;1.33;;;;;;;;;;21010141;28;20470;-66
2023/05/04 14:58:48;;;;;;;0.70;0.30;;;;;;;;;;21008262;28;20044;-67
2023/05/04 15:08:49;;;;;;;0.50;0.32;;;;;;;;;;21007443;28;20044;-67
2023/05/04 15:18:50;;;;;;;1.58;0.50;;;;;;;;;;21006984;28;20127;-67
2023/05/04 15:28:51;;;;;;;0.47;0.10;;;;;;;;;;21007327;28;20502;-67
2023/05/04 15:38:52;;;;;;;1.23;0.30;;;;;;;;;;21006369;28;20056;-67
2023/05/04 15:48:54;;;;;;;1.50;0.30;;;;;;;;;;21004579;28;20080;-67
2023/05/04 15:58:55;;;;;;;1.73;0.40;;;;;;;;;;21003095;28;20168;-67
2023/05/04 16:08:56;;;;;;;1.10;0.20;;;;;;;;;;21002116;28;20123;-67
2023/05/04 16:18:57;;;;;;;0.80;0.20;;;;;;;;;;21003427;28;20528;-68
2023/05/04 16:28:58;;;;;;;1.13;0.22;;;;;;;;;;21000381;28;20083;-67
2023/05/04 16:38:59;;;;;;;0.98;0.40;;;;;;;;;;20999176;28;20084;-68
2023/05/04 16:49:01;;;;;;;0.38;0.10;;;;;;;;;;20999954;28;20044;-68
2023/05/04 16:59:02;;;;;;;1.50;0.30;;;;;;;;;;20999916;28;20048;-66
2023/05/04 17:09:03;;;;;;;2.65;0.70;;;;;;;;;;20997562;28;20040;-67
2023/05/04 17:19:05;;;;;;;3.55;1.88;;;;;;;;;;20997129;28;20044;-67
2023/05/04 17:29:06;;;;;;;1.15;0.30;;;;;;;;;;20998175;28;20051;-67
2023/05/04 17:39:08;;;;;;;1.40;0.50;;;;;;;;;;20996295;28;20044;-67
2023/05/04 17:49:10;;;;;;;1.98;0.50;;;;;;;;;;20994694;28;20055;-67
2023/05/04 17:59:11;;;;;;;1.30;0.40;;;;;;;;;;20995326;28;20446;-68
2023/05/04 18:09:12;;;;;;;0.95;0.60;;;;;;;;;;20998707;28;20565;-67
2023/05/04 18:19:13;;;;;;;2.60;0.98;;;;;;;;;;21011108;28;20041;-67
2023/05/04 18:29:14;;;;;;;2.42;1.00;;;;;;;;;;21009253;28;20477;-67
2023/05/04 18:39:16;;;;;;;4.55;1.30;;;;;;;;;;21009432;28;20079;-67
2023/05/04 18:49:17;;;;;;;2.00;0.40;;;;;;;;;;21008580;28;20048;-68
2023/05/04 18:59:18;;;;;;;2.33;1.10;;;;;;;;;;21008025;28;20541;-67
2023/05/04 19:09:19;;;;;;;2.83;0.63;;;;;;;;;;21007403;28;20515;-67
2023/05/04 19:19:21;;;;;;;1.70;0.60;;;;;;;;;;21006288;28;20094;-67
2023/05/04 19:29:22;;;;;;;2.67;1.15;;;;;;;;;;21006458;28;20060;-67
2023/05/04 19:39:23;;;;;;;2.33;0.85;;;;;;;;;;21004993;28;20055;-67
2023/05/04 19:49:25;;;;;;;2.38;0.90;;;;;;;;;;21004638;28;20102;-67
2023/05/04 19:59:26;;;;;;;3.17;0.80;;;;;;;;;;21003695;28;20075;-67
2023/05/04 20:09:27;;;;;;;1.85;0.98;;;;;;;;;;21002969;28;20432;-68
2023/05/04 20:19:29;;;;;;;3.30;0.85;;;;;;;;;;21002142;28;20094;-67
2023/05/04 20:29:31;;;;;;;2.28;0.60;;;;;;;;;;21002086;28;20489;-67
2023/05/04 20:39:32;;;;;;;2.22;0.88;;;;;;;;;;20998667;28;20141;-67
2023/05/04 20:49:33;;;;;;;2.67;1.02;;;;;;;;;;20999608;28;20501;-67
2023/05/04 20:59:34;;;;;;;2.80;0.80;;;;;;;;;;20997231;28;20139;-67
2023/05/04 21:09:35;;;;;;;1.85;0.85;;;;;;;;;;20997712;28;20504;-67
2023/05/04 21:19:36;;;;;;;2.28;0.90;;;;;;;;;;20997651;28;20097;-67
2023/05/04 21:29:37;;;;;;;4.35;1.20;;;;;;;;;;20995702;28;20138;-67
2023/05/04 21:39:39;;;;;;;4.70;2.38;;;;;;;;;;20995469;28;20139;-67
2023/05/04 21:49:59;;;;;;;3.60;1.17;;;;;;;;;;20995934;28;20048;-67
2023/05/04 22:00:00;;;;;;;6.55;3.60;;;;;;;;;;20996040;28;20044;-65
2023/05/04 22:10:03;;;;;;;5.10;3.22;;;;;;;;;;20994364;28;20048;-66
2023/05/04 22:20:04;;;;;;;3.95;1.10;;;;;;;;;;20994941;28;20057;-67
2023/05/04 22:30:05;;;;;;;2.25;0.80;;;;;;;;;;20993039;28;20053;-66
2023/05/04 22:40:07;;;;;;;3.97;1.17;;;;;;;;;;20993788;28;20076;-67
2023/05/04 22:50:09;;;;;;;5.38;2.92;;;;;;;;;;20993423;28;20449;-67
2023/05/04 23:00:10;;;;;;;3.25;1.02;;;;;;;;;;21003047;28;20044;-66
2023/05/04 23:10:12;;;;;;;1.52;0.70;;;;;;;;;;21006526;28;20093;-67
2023/05/04 23:20:13;;;;;;;2.75;0.98;;;;;;;;;;21006552;28;20083;-66
2023/05/04 23:30:14;;;;;;;2.60;1.10;;;;;;;;;;21006256;28;20044;-67
2023/05/04 23:40:15;;;;;;;3.10;0.55;;;;;;;;;;21004166;28;20076;-67
2023/05/04 23:50:16;;;;;;;7.03;2.10;;;;;;;;;;21004607;28;20054;-67
